Time;durP1;ratioP1;P1;durP2;ratioP2;P2;SDS_P1;SDS_P2;PMS_P1;PMS_P2;Temp;Humidity;BMP_temperature;BMP_pressure;BME280_temperature;BME280_humidity;BME280_pressure;Samples;Min_cycle;Max_cycle;Signal;HPM_P1;HPM_P2
2021/03/03 00:01:04;;;;;;;11.38;5.83;;;;;;;2.01;73.54;100277.63;1775412;79;21119;-41
2021/03/03 00:03:33;;;;;;;11.85;6.75;;;;;;;2.04;73.43;100279.20;1796469;79;21363;-41
2021/03/03 00:06:02;;;;;;;10.63;6.22;;;;;;;1.99;73.58;100281.91;1778701;79;21589;-41
2021/03/03 00:08:30;;;;;;;10.58;6.50;;;;;;;1.93;73.77;100285.72;1790713;79;21162;-41
2021/03/03 00:10:58;;;;;;;9.65;5.85;;;;;;;1.88;73.91;100279.08;1764976;81;21048;-41
2021/03/03 00:13:26;;;;;;;9.80;6.37;;;;;;;1.87;74.10;100288.17;1784496;79;21091;-41
2021/03/03 00:15:55;;;;;;;9.60;5.83;;;;;;;1.88;74.11;100289.77;1774615;79;21367;-41
2021/03/03 00:18:24;;;;;;;12.78;6.70;;;;;;;1.85;74.20;100288.98;1773565;79;21169;-41
2021/03/03 00:20:53;;;;;;;12.63;6.93;;;;;;;1.82;74.29;100293.55;1783569;79;20985;-41
2021/03/03 00:23:21;;;;;;;10.88;6.47;;;;;;;1.78;74.45;100293.86;1764939;81;21158;-41
2021/03/03 00:25:49;;;;;;;9.90;6.62;;;;;;;1.83;74.35;100292.48;1790623;79;21099;-41
2021/03/03 00:28:17;;;;;;;10.45;6.55;;;;;;;1.90;74.21;100296.95;1781055;79;21242;-41
2021/03/03 00:30:46;;;;;;;11.05;6.45;;;;;;;1.51;74.21;100235.50;1764753;81;21139;-42
2021/03/03 00:33:14;;;;;;;10.88;7.15;;;;;;;1.85;74.29;100293.52;1766056;79;21727;-42
2021/03/03 00:35:42;;;;;;;10.03;6.40;;;;;;;1.81;74.32;100291.15;1764913;81;21150;-41
2021/03/03 00:38:11;;;;;;;11.80;6.92;;;;;;;1.81;74.40;100289.28;1781744;79;21151;-41
2021/03/03 00:40:39;;;;;;;10.00;7.00;;;;;;;1.87;74.23;100297.53;1788990;79;21633;-41
2021/03/03 00:43:08;;;;;;;13.38;7.05;;;;;;;1.91;74.21;100292.41;1796122;79;21127;-42
2021/03/03 00:45:36;;;;;;;12.15;7.37;;;;;;;1.95;74.09;100284.89;1768445;79;21150;-41
2021/03/03 00:48:06;;;;;;;8.90;5.85;;;;;;;1.95;73.98;100288.90;1765466;79;21570;-40
2021/03/03 00:50:35;;;;;;;11.57;6.85;;;;;;;1.96;73.88;100283.81;1771139;79;21104;-41
2021/03/03 00:53:03;;;;;;;9.83;5.70;;;;;;;1.97;73.77;100293.98;1792493;79;21274;-41
2021/03/03 00:55:31;;;;;;;10.18;6.30;;;;;;;2.00;73.65;100294.21;1809055;78;21165;-41
2021/03/03 00:58:00;;;;;;;10.53;6.90;;;;;;;1.98;73.65;100291.03;1807816;79;21145;-41
2021/03/03 01:00:30;;;;;;;10.88;6.50;;;;;;;1.97;73.63;100300.12;1785281;79;21152;-41
2021/03/03 01:03:00;;;;;;;10.93;6.20;;;;;;;1.98;73.62;100299.59;1764043;79;21186;-41
2021/03/03 01:05:29;;;;;;;9.05;5.83;;;;;;;1.99;73.49;100299.30;1783026;79;22124;-41
2021/03/03 01:09:23;;;;;;;11.43;6.47;;;;;;;2.11;73.18;100294.39;1862176;76;22643;-42
2021/03/03 01:11:51;;;;;;;9.88;5.87;;;;;;;1.98;73.27;100299.59;1850566;77;20990;-41
2021/03/03 01:14:21;;;;;;;10.55;6.20;;;;;;;1.94;73.34;100297.99;1834826;77;21188;-41
2021/03/03 01:16:52;;;;;;;8.83;6.45;;;;;;;1.86;73.44;100303.14;1759099;80;21276;-41
2021/03/03 01:19:21;;;;;;;12.05;6.03;;;;;;;1.81;73.52;100307.19;1783575;80;21008;-41
2021/03/03 01:21:49;;;;;;;10.00;6.12;;;;;;;1.85;73.50;100314.91;1785759;78;21648;-41
2021/03/03 01:24:18;;;;;;;11.03;6.45;;;;;;;1.85;73.51;100319.72;1792190;80;21572;-41
2021/03/03 01:26:46;;;;;;;10.53;6.12;;;;;;;1.81;73.54;100327.23;1764844;79;21212;-41
2021/03/03 01:29:14;;;;;;;11.10;6.78;;;;;;;1.75;73.72;100322.46;1773569;79;21020;-42
2021/03/03 01:31:43;;;;;;;9.93;6.03;;;;;;;1.70;73.81;100318.48;1770021;79;21019;-41
2021/03/03 01:34:11;;;;;;;11.88;6.40;;;;;;;1.70;73.87;100322.49;1789899;78;21094;-41
2021/03/03 01:36:39;;;;;;;10.10;6.80;;;;;;;1.70;73.87;100319.81;1805369;79;21191;-41
2021/03/03 01:39:09;;;;;;;8.73;6.05;;;;;;;1.66;74.03;100329.47;1822029;78;21200;-41
2021/03/03 01:41:37;;;;;;;10.10;6.17;;;;;;;1.61;74.12;100333.51;1818989;78;21177;-41
2021/03/03 01:44:06;;;;;;;8.95;6.03;;;;;;;1.54;74.28;100323.14;1819170;78;21134;-41
2021/03/03 01:46:34;;;;;;;10.25;6.20;;;;;;;1.55;74.24;100325.28;1758395;80;21190;-41
2021/03/03 01:49:03;;;;;;;9.40;6.87;;;;;;;1.60;74.21;100323.89;1759451;80;21127;-41
2021/03/03 01:51:31;;;;;;;10.88;6.53;;;;;;;1.64;74.17;100324.95;1787017;79;21609;-41
2021/03/03 01:53:59;;;;;;;13.40;6.60;;;;;;;1.65;74.03;100325.20;1807440;77;21142;-41
2021/03/03 01:56:27;;;;;;;10.03;6.08;;;;;;;1.65;73.93;100323.86;1783020;79;21055;-41
2021/03/03 01:58:56;;;;;;;8.80;5.80;;;;;;;1.65;73.83;100317.98;1769092;79;21178;-41
2021/03/03 02:01:24;;;;;;;8.53;5.78;;;;;;;1.68;73.62;100320.66;1768040;79;21161;-41
2021/03/03 02:03:52;;;;;;;9.53;5.97;;;;;;;1.67;73.58;100318.52;1783229;79;21573;-41
2021/03/03 02:06:35;;;;;;;11.10;6.22;;;;;;;1.64;73.67;100327.63;1763532;80;20960;-41
2021/03/03 02:09:21;;;;;;;10.50;6.37;;;;;;;1.62;73.68;100326.56;1751463;81;21605;-41
2021/03/03 02:12:13;;;;;;;10.03;6.28;;;;;;;1.61;73.67;100329.50;1757533;80;21113;-41
2021/03/03 02:14:45;;;;;;;11.97;6.20;;;;;;;1.60;73.72;100333.24;1724501;81;21105;-41
2021/03/03 02:17:14;;;;;;;8.58;5.83;;;;;;;1.61;73.60;100337.52;1760944;80;21482;-41
2021/03/03 02:19:42;;;;;;;11.90;7.10;;;;;;;1.53;73.79;100345.59;1758969;80;21651;-41
2021/03/03 02:22:27;;;;;;;8.75;6.20;;;;;;;1.47;73.97;100344.55;1791275;80;22091;-42
2021/03/03 02:25:21;;;;;;;9.85;6.53;;;;;;;1.42;74.10;100347.24;1729407;81;21172;-41
2021/03/03 02:27:49;;;;;;;11.18;6.22;;;;;;;1.35;74.04;100341.41;1766139;80;21193;-40
2021/03/03 02:30:19;;;;;;;10.82;6.50;;;;;;;1.40;74.25;100350.20;1761361;80;21588;-41
2021/03/03 02:32:47;;;;;;;11.22;6.87;;;;;;;1.36;74.41;100346.46;1778640;80;21139;-40
2021/03/03 02:35:16;;;;;;;12.98;7.08;;;;;;;1.36;74.41;100344.32;1747590;80;22217;-41
2021/03/03 02:37:46;;;;;;;11.45;6.45;;;;;;;1.42;74.24;100352.05;1758007;80;21152;-41
2021/03/03 02:40:16;;;;;;;12.70;6.65;;;;;;;1.49;74.07;100362.45;1755712;80;21146;-41
2021/03/03 02:42:44;;;;;;;9.83;6.08;;;;;;;1.49;73.92;100360.58;1763694;80;21369;-41
2021/03/03 02:45:19;;;;;;;12.58;6.67;;;;;;;1.45;73.93;100358.73;1774367;80;21118;-41
2021/03/03 02:47:47;;;;;;;10.63;6.33;;;;;;;1.45;73.99;100368.09;1773996;80;21538;-40
2021/03/03 02:50:16;;;;;;;10.03;6.70;;;;;;;1.47;73.87;100369.40;1762230;80;22440;-41
2021/03/03 02:52:52;;;;;;;9.90;6.12;;;;;;;1.52;73.81;100375.25;1763278;80;21419;-41
2021/03/03 02:55:23;;;;;;;11.20;6.62;;;;;;;1.53;73.79;100370.98;1747447;81;21524;-41
2021/03/03 02:57:53;;;;;;;9.98;6.53;;;;;;;1.51;73.80;100377.66;1757183;81;21117;-42
2021/03/03 03:00:41;;;;;;;10.38;6.72;;;;;;;1.48;73.74;100375.55;1760744;81;21761;-42
2021/03/03 03:03:58;;;;;;;11.38;6.70;;;;;;;1.48;73.70;100383.56;1772091;80;21036;-41
2021/03/03 03:06:44;;;;;;;11.53;6.40;;;;;;;1.54;73.49;100384.61;1772958;80;21652;-41
2021/03/03 03:09:30;;;;;;;11.20;6.25;;;;;;;1.11;73.51;100322.02;1744143;79;21032;-40
2021/03/03 03:12:17;;;;;;;11.03;6.70;;;;;;;1.43;73.57;100384.91;1747638;80;21004;-41
2021/03/03 03:15:05;;;;;;;10.88;6.35;;;;;;;1.31;73.87;100383.34;1801548;78;21035;-41
2021/03/03 03:17:34;;;;;;;9.90;6.47;;;;;;;1.29;73.91;100384.17;1798988;78;21160;-41
2021/03/03 03:20:04;;;;;;;10.63;6.58;;;;;;;1.36;73.87;100380.39;1778839;78;21106;-40
2021/03/03 03:22:33;;;;;;;9.20;6.22;;;;;;;1.34;73.87;100383.89;1768094;79;22124;-41
2021/03/03 03:25:02;;;;;;;11.83;6.60;;;;;;;1.26;74.02;100388.70;1781980;78;21400;-41
2021/03/03 03:27:30;;;;;;;10.93;7.05;;;;;;;1.19;74.15;100394.89;1745316;79;21134;-41
2021/03/03 03:29:59;;;;;;;9.45;6.33;;;;;;;1.22;74.15;100397.01;1786442;79;21169;-41
2021/03/03 03:32:27;;;;;;;16.20;7.70;;;;;;;1.15;74.14;100371.14;1777325;79;21167;-41
2021/03/03 03:34:55;;;;;;;14.70;7.65;;;;;;;1.18;74.29;100387.14;1787762;79;21256;-41
2021/03/03 03:37:25;;;;;;;9.60;6.72;;;;;;;1.20;74.27;100393.83;1756286;79;21182;-42
2021/03/03 03:39:54;;;;;;;13.22;7.08;;;;;;;1.18;74.26;100386.61;1781662;78;21157;-41
2021/03/03 03:42:22;;;;;;;11.45;7.20;;;;;;;1.22;74.24;100395.67;1758506;79;21145;-42
2021/03/03 03:44:50;;;;;;;11.85;7.10;;;;;;;1.22;74.27;100395.67;1781007;80;21188;-41
2021/03/03 03:47:19;;;;;;;9.85;7.05;;;;;;;1.16;74.35;100393.31;1769874;79;21213;-42
2021/03/03 03:49:47;;;;;;;10.38;6.70;;;;;;;1.12;74.48;100394.90;1772759;79;21189;-41
2021/03/03 03:52:17;;;;;;;13.10;7.08;;;;;;;1.13;74.43;100391.97;1772373;79;21190;-41
2021/03/03 03:54:53;;;;;;;9.70;6.50;;;;;;;1.20;74.24;100387.68;1775858;79;21170;-42
2021/03/03 03:57:22;;;;;;;11.22;7.15;;;;;;;1.20;74.13;100394.36;1774530;79;21134;-41
2021/03/03 03:59:51;;;;;;;11.78;6.65;;;;;;;1.13;74.15;100393.83;1777137;79;21202;-42
2021/03/03 04:02:19;;;;;;;10.43;6.47;;;;;;;1.09;74.29;100389.58;1776337;79;21168;-41
2021/03/03 04:04:48;;;;;;;10.20;6.30;;;;;;;1.10;74.29;100389.05;1777090;79;21027;-41
2021/03/03 04:07:16;;;;;;;10.05;6.00;;;;;;;1.11;74.18;100399.47;1776502;79;21161;-41
2021/03/03 04:09:44;;;;;;;13.35;6.50;;;;;;;1.07;74.22;100387.70;1775770;79;21556;-41
2021/03/03 04:12:13;;;;;;;10.93;6.80;;;;;;;1.02;74.29;100391.72;1774045;79;21382;-41
2021/03/03 04:14:41;;;;;;;10.28;6.45;;;;;;;1.03;74.26;100397.86;1769243;80;21142;-41
2021/03/03 04:17:09;;;;;;;11.53;6.45;;;;;;;1.09;74.09;100399.45;1773442;79;21095;-41
2021/03/03 04:19:40;;;;;;;9.73;6.67;;;;;;;1.07;74.03;100401.05;1796148;78;21135;-42
2021/03/03 04:22:08;;;;;;;9.18;6.25;;;;;;;1.02;74.12;100398.39;1783084;80;21142;-41
2021/03/03 04:24:37;;;;;;;11.93;6.50;;;;;;;0.99;74.26;100409.63;1797158;78;21154;-41
2021/03/03 04:27:05;;;;;;;11.10;6.53;;;;;;;1.00;74.17;100411.77;1798749;77;21501;-41
2021/03/03 04:29:34;;;;;;;10.70;6.83;;;;;;;0.98;74.19;100404.55;1758211;80;21024;-42
2021/03/03 04:32:02;;;;;;;9.98;6.30;;;;;;;0.91;74.38;100405.38;1776256;79;21504;-41
2021/03/03 04:34:31;;;;;;;9.50;6.70;;;;;;;0.85;74.47;100400.05;1804269;77;21164;-42
2021/03/03 04:36:59;;;;;;;10.00;6.17;;;;;;;0.84;74.53;100409.65;1767632;80;21277;-42
2021/03/03 04:39:27;;;;;;;11.03;6.90;;;;;;;0.83;74.53;100412.85;1824374;78;21418;-41
2021/03/03 04:41:56;;;;;;;11.48;6.65;;;;;;;0.80;74.66;100421.94;1789060;79;21188;-41
2021/03/03 04:44:24;;;;;;;10.30;6.50;;;;;;;0.84;74.58;100416.33;1802823;78;21441;-41
2021/03/03 04:46:52;;;;;;;10.90;6.83;;;;;;;0.82;74.64;100427.26;1797027;78;21109;-42
2021/03/03 04:49:21;;;;;;;10.80;6.40;;;;;;;0.79;74.67;100435.02;1790003;78;21187;-42
2021/03/03 04:51:49;;;;;;;9.65;6.35;;;;;;;0.78;74.69;100436.08;1793885;78;21563;-42
2021/03/03 04:54:18;;;;;;;8.60;5.97;;;;;;;0.81;74.68;100436.89;1788822;80;21169;-42
2021/03/03 04:56:46;;;;;;;11.45;6.92;;;;;;;0.79;74.79;100439.02;1815546;78;21173;-41
2021/03/03 04:59:14;;;;;;;11.75;7.22;;;;;;;0.74;74.87;100443.83;1758918;80;21171;-42
2021/03/03 05:01:42;;;;;;;12.73;6.80;;;;;;;0.75;75.04;100445.97;1799928;77;21195;-41
2021/03/03 05:04:11;;;;;;;11.30;6.72;;;;;;;0.80;74.99;100448.10;1788721;79;21098;-41
2021/03/03 05:06:39;;;;;;;10.20;6.37;;;;;;;0.82;75.01;100453.18;1794908;78;21130;-41
2021/03/03 05:09:07;;;;;;;10.70;6.58;;;;;;;0.80;75.21;100455.30;1786559;78;21428;-42
2021/03/03 05:11:36;;;;;;;9.45;6.45;;;;;;;0.79;75.32;100469.71;1776488;80;21153;-41
2021/03/03 05:14:04;;;;;;;12.13;6.67;;;;;;;0.82;75.42;100456.63;1780356;79;22386;-41
2021/03/03 05:16:32;;;;;;;10.30;6.28;;;;;;;0.48;75.43;100406.76;1797075;78;21185;-41
2021/03/03 05:19:01;;;;;;;10.50;7.42;;;;;;;0.80;75.75;100464.65;1770151;79;21891;-41
2021/03/03 05:21:30;;;;;;;10.15;7.22;;;;;;;0.77;75.86;100469.20;1787026;79;21142;-41
2021/03/03 05:23:58;;;;;;;10.72;6.67;;;;;;;0.82;75.82;100478.54;1782008;79;21161;-41
2021/03/03 05:26:26;;;;;;;9.70;6.72;;;;;;;0.91;75.75;100478.27;1785134;78;21185;-42
2021/03/03 05:28:54;;;;;;;14.60;7.17;;;;;;;0.90;75.77;100484.66;1778697;79;21213;-41
2021/03/03 05:31:25;;;;;;;12.73;6.67;;;;;;;0.88;75.98;100484.13;1788061;79;21205;-42
2021/03/03 05:33:54;;;;;;;;;;;;;;;0.93;76.07;100490.80;1789388;79;21134;-41
2021/03/03 05:36:23;;;;;;;13.15;7.12;;;;;;;1.02;75.99;100489.71;1783189;79;20282;-41
2021/03/03 05:38:51;;;;;;;11.90;6.70;;;;;;;0.96;76.21;100488.94;1784958;79;21419;-42
2021/03/03 05:41:25;;;;;;;8.88;6.65;;;;;;;0.99;76.22;100492.39;1785009;79;21064;-42
2021/03/03 05:43:54;;;;;;;13.68;7.10;;;;;;;1.04;76.17;100499.07;1800788;79;21151;-42
2021/03/03 05:46:22;;;;;;;13.20;7.78;;;;;;;1.16;76.09;100498.80;1775667;79;21162;-41
2021/03/03 05:48:58;;;;;;;14.15;7.50;;;;;;;1.26;75.89;100500.09;1798883;78;21164;-41
2021/03/03 05:51:26;;;;;;;11.88;7.80;;;;;;;1.27;75.94;100499.84;1800788;78;21375;-41
2021/03/03 05:53:55;;;;;;;11.10;7.75;;;;;;;1.29;75.93;100500.91;1761218;80;21182;-41
2021/03/03 05:56:23;;;;;;;11.60;6.80;;;;;;;1.34;75.83;100503.57;1775568;79;21433;-41
2021/03/03 05:58:51;;;;;;;14.73;8.13;;;;;;;1.39;75.82;100506.77;1776155;80;20992;-42
2021/03/03 06:01:19;;;;;;;11.20;7.95;;;;;;;1.43;75.82;100506.48;1775702;79;21585;-42
2021/03/03 06:03:48;;;;;;;13.70;8.20;;;;;;;1.46;75.89;100501.92;1750780;80;22333;-41
2021/03/03 06:06:17;;;;;;;14.03;7.78;;;;;;;1.48;75.71;100513.16;1773008;79;21150;-42
2021/03/03 06:08:45;;;;;;;9.90;6.85;;;;;;;1.53;75.65;100515.82;1767179;80;21166;-40
2021/03/03 06:11:14;;;;;;;12.15;7.45;;;;;;;1.58;75.49;100513.94;1781561;79;21154;-42
2021/03/03 06:13:43;;;;;;;10.50;6.72;;;;;;;1.61;75.56;100520.59;1762135;80;21461;-41
2021/03/03 06:16:11;;;;;;;13.53;7.40;;;;;;;1.68;75.61;100524.60;1775477;80;21382;-41
2021/03/03 06:18:39;;;;;;;10.75;6.83;;;;;;;1.73;75.34;100522.45;1788388;80;21173;-41
2021/03/03 06:21:13;;;;;;;11.88;7.15;;;;;;;1.82;75.20;100524.02;1793174;78;21191;-41
2021/03/03 06:23:43;;;;;;;11.53;6.60;;;;;;;1.92;74.87;100532.80;1766697;80;21154;-42
2021/03/03 06:26:11;;;;;;;12.95;7.90;;;;;;;1.95;74.69;100521.55;1783126;80;21115;-41
2021/03/03 06:28:44;;;;;;;11.40;7.80;;;;;;;1.98;74.58;100522.89;1789251;80;21276;-42
2021/03/03 06:31:34;;;;;;;12.13;6.85;;;;;;;2.02;74.30;100514.05;1784102;79;21048;-41
2021/03/03 06:34:26;;;;;;;9.15;6.00;;;;;;;2.09;74.03;100514.53;1769936;80;21150;-42
2021/03/03 06:37:01;;;;;;;10.53;6.33;;;;;;;2.18;73.54;100508.06;1810535;78;21148;-42
2021/03/03 06:39:37;;;;;;;14.03;7.78;;;;;;;2.17;73.49;100514.51;1804899;78;21545;-42
2021/03/03 06:42:11;;;;;;;12.65;7.40;;;;;;;2.18;73.61;100518.23;1775936;80;21406;-43
2021/03/03 06:44:56;;;;;;;10.70;7.00;;;;;;;1.90;73.32;100466.75;1814845;78;21091;-41
2021/03/03 06:47:25;;;;;;;11.73;7.25;;;;;;;2.22;73.22;100512.34;1782656;80;21585;-41
2021/03/03 06:49:54;;;;;;;11.48;6.92;;;;;;;2.31;73.37;100522.19;1782271;80;21162;-42
2021/03/03 06:52:42;;;;;;;12.43;8.03;;;;;;;2.41;72.97;100515.98;1738067;80;21122;-41
2021/03/03 06:55:12;;;;;;;13.60;8.15;;;;;;;2.43;72.75;100520.50;1776752;80;21875;-42
2021/03/03 06:57:40;;;;;;;11.47;7.17;;;;;;;2.49;72.71;100514.05;1774040;80;21633;-41
2021/03/03 07:00:10;;;;;;;11.10;7.00;;;;;;;2.62;72.69;100515.55;1772007;80;21162;-42
2021/03/03 07:02:38;;;;;;;;;;;;;;;2.79;71.71;100511.16;1781033;79;21578;-42
2021/03/03 07:05:11;;;;;;;13.93;7.50;;;;;;;2.90;71.41;100514.03;1791532;79;26770;-42
2021/03/03 07:07:39;;;;;;;10.48;6.75;;;;;;;2.91;71.63;100521.50;1767866;80;22149;-43
2021/03/03 07:10:09;;;;;;;8.80;6.40;;;;;;;3.03;70.96;100516.05;1772735;80;21198;-42
2021/03/03 07:12:48;;;;;;;;;;;;;;;3.09;70.61;100524.05;1763816;78;21195;-42
2021/03/03 07:15:17;;;;;;;10.15;6.85;;;;;;;3.10;70.09;100528.33;1789969;79;20242;-42
2021/03/03 07:17:45;;;;;;;9.75;6.42;;;;;;;2.99;70.13;100528.42;1793828;79;21113;-41
2021/03/03 07:20:16;;;;;;;12.30;7.33;;;;;;;3.05;70.03;100525.13;1811143;78;21178;-42
2021/03/03 07:22:53;;;;;;;12.05;7.15;;;;;;;3.12;69.94;100520.80;1789320;79;21186;-42
2021/03/03 07:25:21;;;;;;;11.88;6.95;;;;;;;3.12;69.63;100527.50;1815491;78;20948;-42
2021/03/03 07:27:49;;;;;;;9.48;6.45;;;;;;;3.10;69.66;100522.98;1799248;78;21171;-42
2021/03/03 07:30:24;;;;;;;11.80;6.78;;;;;;;3.09;69.62;100518.69;1827460;78;21174;-42
2021/03/03 07:32:52;;;;;;;10.40;6.95;;;;;;;3.09;69.52;100516.02;1797676;78;21195;-42
2021/03/03 07:35:22;;;;;;;10.93;6.55;;;;;;;3.04;69.55;100516.32;1760196;81;21156;-42
2021/03/03 07:37:55;;;;;;;12.37;6.92;;;;;;;3.11;69.58;100520.53;1794870;79;21098;-42
2021/03/03 07:40:30;;;;;;;9.38;6.10;;;;;;;3.16;69.33;100522.63;1790443;79;21125;-43
2021/03/03 07:43:00;;;;;;;10.93;6.30;;;;;;;3.23;69.06;100523.12;1811615;78;21154;-42
2021/03/03 07:45:38;;;;;;;9.18;6.58;;;;;;;3.25;68.89;100521.47;1820493;78;21187;-43
2021/03/03 07:48:12;;;;;;;10.10;5.78;;;;;;;3.28;69.05;100520.92;1827364;78;21161;-42
2021/03/03 07:50:41;;;;;;;12.35;6.78;;;;;;;3.35;68.74;100520.03;1793363;80;21004;-42
2021/03/03 07:53:10;;;;;;;8.85;6.08;;;;;;;3.47;68.29;100518.59;1794219;80;26604;-42
2021/03/03 07:55:39;;;;;;;12.55;6.83;;;;;;;3.58;68.12;100512.59;1821815;78;21536;-42
2021/03/03 07:58:07;;;;;;;11.10;6.33;;;;;;;3.69;68.17;100521.30;1826891;78;21345;-42
2021/03/03 08:00:40;;;;;;;12.33;7.10;;;;;;;3.85;67.68;100517.36;1794297;79;21145;-43
2021/03/03 08:03:07;;;;;;;9.88;6.33;;;;;;;3.99;66.41;100520.94;1796315;78;21860;-42
2021/03/03 08:05:39;;;;;;;8.63;5.92;;;;;;;4.08;66.26;100521.09;1786419;80;21173;-43
2021/03/03 08:08:23;;;;;;;7.85;5.97;;;;;;;4.27;66.36;100521.38;1802381;78;27176;-42
2021/03/03 08:11:02;;;;;;;9.03;5.35;;;;;;;4.50;65.32;100527.00;1777959;80;21196;-41
2021/03/03 08:13:36;;;;;;;13.25;7.10;;;;;;;4.61;64.93;100523.05;1795007;79;21051;-40
2021/03/03 08:16:06;;;;;;;9.88;6.58;;;;;;;4.75;64.02;100522.56;1785378;79;21106;-42
2021/03/03 08:18:37;;;;;;;10.08;6.80;;;;;;;4.78;63.86;100522.80;1780093;78;21136;-42
2021/03/03 08:21:12;;;;;;;9.58;6.08;;;;;;;4.86;63.72;100525.90;1768445;79;21106;-41
2021/03/03 08:23:41;;;;;;;10.65;6.37;;;;;;;5.00;63.70;100530.23;1777844;80;22229;-41
2021/03/03 08:26:20;;;;;;;8.60;6.47;;;;;;;5.09;62.97;100514.23;1787532;80;21561;-42
2021/03/03 08:28:53;;;;;;;11.33;6.67;;;;;;;5.18;63.17;100513.83;1789869;78;21158;-40
2021/03/03 08:31:24;;;;;;;10.05;6.70;;;;;;;5.23;62.38;100519.89;1796836;78;21091;-42
2021/03/03 08:33:57;;;;;;;10.70;6.58;;;;;;;5.27;62.07;100520.66;1786189;79;21612;-42
2021/03/03 08:36:31;;;;;;;10.05;6.47;;;;;;;5.27;62.24;100524.70;1778489;79;21306;-42
2021/03/03 08:39:05;;;;;;;9.70;6.12;;;;;;;5.33;61.97;100516.22;1786736;79;21707;-40
2021/03/03 08:41:34;;;;;;;8.63;5.92;;;;;;;5.38;61.65;100515.33;1791846;79;21133;-40
2021/03/03 08:44:14;;;;;;;10.43;6.53;;;;;;;5.48;61.45;100521.33;1796119;79;21579;-40
2021/03/03 08:46:47;;;;;;;9.28;6.10;;;;;;;5.58;61.19;100511.73;1772897;80;21600;-40
2021/03/03 08:49:25;;;;;;;10.60;6.22;;;;;;;5.73;60.87;100517.91;1797356;79;21279;-40
2021/03/03 08:52:11;;;;;;;11.70;6.40;;;;;;;5.79;60.02;100508.11;1797608;78;21124;-40
2021/03/03 08:54:43;;;;;;;8.38;5.60;;;;;;;5.88;59.64;100508.23;1790224;79;21580;-40
2021/03/03 08:57:31;;;;;;;11.03;6.67;;;;;;;5.99;59.63;100504.24;1812438;78;21549;-40
2021/03/03 08:59:59;;;;;;;10.25;6.08;;;;;;;6.14;59.66;100507.97;1806110;78;21122;-40
2021/03/03 09:02:38;;;;;;;9.30;6.10;;;;;;;6.36;59.05;100505.31;1787223;79;21372;-40
2021/03/03 09:05:13;;;;;;;11.18;6.22;;;;;;;6.60;57.67;100510.98;1830432;78;21185;-40
2021/03/03 09:07:41;;;;;;;13.28;6.80;;;;;;;6.66;57.19;100514.61;1795391;79;20935;-40
2021/03/03 09:10:18;;;;;;;10.25;6.20;;;;;;;6.66;57.31;100511.91;1797764;79;21123;-40
2021/03/03 09:12:46;;;;;;;11.33;6.22;;;;;;;6.83;57.40;100515.27;1793878;79;21165;-40
2021/03/03 09:15:16;;;;;;;11.40;6.35;;;;;;;7.14;55.87;100509.39;1780204;80;23509;-40
2021/03/03 09:17:45;;;;;;;10.17;6.43;;;;;;;7.31;54.69;100511.41;1764642;80;21151;-40
2021/03/03 09:20:17;;;;;;;10.32;7.08;;;;;;;7.33;55.27;100515.37;1818021;78;21039;-40
2021/03/03 09:22:46;;;;;;;10.20;6.47;;;;;;;7.49;55.29;100517.67;1822681;78;21640;-40
2021/03/03 09:25:22;;;;;;;11.70;6.95;;;;;;;7.67;54.42;100518.78;1826044;78;21102;-39
2021/03/03 09:27:58;;;;;;;11.55;6.05;;;;;;;7.82;54.17;100512.97;1827117;78;21199;-39
2021/03/03 09:30:30;;;;;;;11.93;7.00;;;;;;;7.97;53.36;100520.40;1826903;78;21122;-39
2021/03/03 09:33:01;;;;;;;10.63;6.17;;;;;;;7.94;53.00;100517.75;1793374;80;21181;-39
2021/03/03 09:35:30;;;;;;;10.88;6.58;;;;;;;7.95;53.80;100534.20;1772410;78;21153;-39
2021/03/03 09:37:59;;;;;;;10.63;6.97;;;;;;;8.14;52.83;100525.83;1794014;80;21192;-38
2021/03/03 09:40:35;;;;;;;11.18;6.12;;;;;;;8.34;53.05;100527.17;1759894;81;21376;-39
2021/03/03 09:43:04;;;;;;;11.15;6.12;;;;;;;8.46;52.12;100530.86;1763292;81;21616;-39
2021/03/03 09:45:32;;;;;;;11.33;6.00;;;;;;;8.65;52.23;100538.66;1761241;81;21047;-38
2021/03/03 09:48:01;;;;;;;9.50;6.10;;;;;;;8.90;52.41;100535.17;1817481;78;21129;-39
2021/03/03 09:50:30;;;;;;;8.98;5.58;;;;;;;9.25;51.01;100532.39;1785511;80;21178;-39
2021/03/03 09:52:59;;;;;;;9.05;6.08;;;;;;;9.34;50.06;100531.84;1786011;79;21372;-39
2021/03/03 09:55:33;;;;;;;8.75;5.83;;;;;;;9.25;50.40;100525.06;1803399;79;21553;-39
2021/03/03 09:58:03;;;;;;;10.32;6.50;;;;;;;9.28;50.70;100526.34;1776917;79;21106;-39
2021/03/03 10:00:37;;;;;;;10.72;6.05;;;;;;;9.46;51.07;100514.35;1792997;80;21137;-39
2021/03/03 10:03:12;;;;;;;8.75;5.78;;;;;;;9.58;49.46;100512.55;1827457;78;21154;-39
2021/03/03 10:05:40;;;;;;;8.70;6.25;;;;;;;9.53;49.33;100511.95;1794786;80;22258;-39
2021/03/03 10:08:13;;;;;;;9.40;5.80;;;;;;;9.46;50.44;100507.03;1827324;78;20987;-39
2021/03/03 10:10:47;;;;;;;10.68;6.10;;;;;;;9.55;49.98;100509.70;1782953;80;21580;-39
2021/03/03 10:13:23;;;;;;;8.80;5.12;;;;;;;9.68;49.69;100499.80;1821810;78;20972;-39
2021/03/03 10:15:53;;;;;;;7.25;5.03;;;;;;;9.69;48.65;100491.88;1757308;81;21124;-39
2021/03/03 10:18:22;;;;;;;8.50;4.53;;;;;;;9.64;49.35;100500.98;1774739;79;21292;-39
2021/03/03 10:20:55;;;;;;;5.77;3.13;;;;;;;9.72;48.02;100496.11;1820656;78;21130;-39
2021/03/03 10:23:26;;;;;;;7.28;3.83;;;;;;;9.75;46.53;100486.52;1803048;78;21114;-39
2021/03/03 10:26:08;;;;;;;6.35;3.98;;;;;;;9.57;47.05;100495.30;1788886;80;22065;-39
2021/03/03 10:28:36;;;;;;;7.40;4.62;;;;;;;9.37;47.91;100485.17;1821348;78;21169;-39
2021/03/03 10:31:09;;;;;;;8.85;4.42;;;;;;;9.24;48.23;100491.59;1788892;80;21382;-39
2021/03/03 10:33:38;;;;;;;;;;;;;;;9.24;48.90;100484.83;1760458;80;21193;-39
2021/03/03 10:36:15;;;;;;;5.53;4.00;;;;;;;9.37;48.19;100483.81;1777160;80;20286;-39
2021/03/03 10:38:54;;;;;;;7.20;4.37;;;;;;;9.33;47.72;100485.59;1776803;79;21178;-40
2021/03/03 10:41:25;;;;;;;5.75;4.20;;;;;;;9.41;47.85;100485.55;1774837;79;21158;-40
2021/03/03 10:43:53;;;;;;;7.33;4.15;;;;;;;9.51;47.00;100481.70;1788585;79;21194;-40
2021/03/03 10:46:23;;;;;;;8.48;4.55;;;;;;;9.51;47.00;100481.70;1776654;80;21995;-40
2021/03/03 10:48:54;;;;;;;6.50;3.95;;;;;;;9.56;47.94;100484.22;1788237;80;21133;-41
2021/03/03 10:51:35;;;;;;;;;;;;;;;9.77;47.45;100475.61;1823930;78;21142;-41
2021/03/03 10:54:05;;;;;;;7.92;4.37;;;;;;;9.99;47.18;100477.23;1805298;79;20256;-40
2021/03/03 10:56:35;;;;;;;7.00;4.47;;;;;;;10.04;45.92;100475.13;1801673;79;21145;-40
2021/03/03 10:59:12;;;;;;;7.67;4.20;;;;;;;10.13;45.67;100468.85;1789069;79;21189;-40
2021/03/03 11:01:55;;;;;;;7.47;4.17;;;;;;;10.09;45.61;100465.22;1797698;79;21128;-41
2021/03/03 11:04:21;;;;;;;8.50;4.78;;;;;;;9.94;45.85;100462.52;1785651;79;21170;-40
2021/03/03 11:06:49;;;;;;;8.60;4.30;;;;;;;9.85;46.44;100463.14;1791410;79;21119;-41
2021/03/03 11:09:19;;;;;;;6.15;3.75;;;;;;;9.88;46.38;100461.91;1774619;80;21171;-41
2021/03/03 11:11:53;;;;;;;6.28;3.92;;;;;;;9.97;46.46;100456.47;1767429;80;21162;-41
2021/03/03 11:14:21;;;;;;;7.50;4.08;;;;;;;9.90;45.68;100455.62;1788089;79;21149;-41
2021/03/03 11:16:51;;;;;;;7.00;3.47;;;;;;;9.62;46.33;100459.92;1764052;80;21146;-40
2021/03/03 11:19:20;;;;;;;6.92;4.00;;;;;;;9.46;47.10;100460.22;1788641;79;21158;-40
2021/03/03 11:21:49;;;;;;;7.70;4.10;;;;;;;9.22;47.09;100457.28;1823668;77;21370;-41
2021/03/03 11:24:18;;;;;;;6.45;3.65;;;;;;;9.01;47.87;100451.20;1792793;78;21190;-41
2021/03/03 11:26:46;;;;;;;8.30;4.17;;;;;;;9.04;48.51;100446.52;1780038;80;21140;-41
2021/03/03 11:29:14;;;;;;;6.60;3.75;;;;;;;9.18;47.57;100441.47;1792983;80;21573;-41
2021/03/03 11:31:44;;;;;;;6.62;4.12;;;;;;;8.90;47.22;100394.55;1792848;80;21146;-41
2021/03/03 11:34:12;;;;;;;5.87;2.85;;;;;;;9.35;48.02;100442.73;1777338;80;21411;-41
2021/03/03 11:36:41;;;;;;;6.55;3.47;;;;;;;9.67;47.20;100439.42;1792277;78;21166;-41
2021/03/03 11:39:10;;;;;;;5.03;3.42;;;;;;;10.03;46.16;100431.55;1782213;79;21157;-41
2021/03/03 11:41:39;;;;;;;5.65;3.10;;;;;;;10.41;45.58;100433.35;1776095;80;21588;-41
2021/03/03 11:44:07;;;;;;;6.20;3.42;;;;;;;10.78;45.01;100424.81;1771116;79;21166;-41
2021/03/03 11:46:36;;;;;;;6.87;3.42;;;;;;;11.09;44.32;100415.60;1801108;79;21200;-41
2021/03/03 11:49:05;;;;;;;6.47;3.50;;;;;;;11.37;43.13;100420.41;1802655;79;21475;-41